sensor_id;sensor_type;location;lat;lon;timestamp;pressure;altitude;pressure_sealevel;temperature;humidity
60583;BME280;46415;47.536;19.066;2023-12-20T00:02:50;-18202.50;;;-0.99;100.00
60583;BME280;46415;47.536;19.066;2023-12-20T00:05:53;-18201.41;;;-1.03;100.00
60583;BME280;46415;47.536;19.066;2023-12-20T00:08:55;-18201.94;;;-1.01;100.00
60583;BME280;46415;47.536;19.066;2023-12-20T00:11:58;-18202.37;;;-1.00;100.00
60583;BME280;46415;47.536;19.066;2023-12-20T00:15:01;-18201.25;;;-1.04;100.00
60583;BME280;46415;47.536;19.066;2023-12-20T00:18:04;-18203.19;;;-0.97;100.00
60583;BME280;46415;47.536;19.066;2023-12-20T00:21:07;-18201.53;;;-1.03;100.00
60583;BME280;46415;47.536;19.066;2023-12-20T00:24:10;-18202.91;;;-0.98;100.00
60583;BME280;46415;47.536;19.066;2023-12-20T00:27:13;-18201.41;;;-1.03;100.00
60583;BME280;46415;47.536;19.066;2023-12-20T00:30:16;-18201.25;;;-1.04;100.00
60583;BME280;46415;47.536;19.066;2023-12-20T00:33:18;-18200.16;;;-1.08;100.00
60583;BME280;46415;47.536;19.066;2023-12-20T00:36:21;-18198.91;;;-1.12;100.00
60583;BME280;46415;47.536;19.066;2023-12-20T00:39:24;-18201.41;;;-1.03;100.00
60583;BME280;46415;47.536;19.066;2023-12-20T00:42:27;-18200.84;;;-1.05;100.00
60583;BME280;46415;47.536;19.066;2023-12-20T00:45:29;-18201.41;;;-1.03;100.00
60583;BME280;46415;47.536;19.066;2023-12-20T00:48:32;-18198.22;;;-1.15;100.00
60583;BME280;46415;47.536;19.066;2023-12-20T00:51:35;-18197.25;;;-1.18;100.00
60583;BME280;46415;47.536;19.066;2023-12-20T00:54:38;-18195.88;;;-1.24;100.00
60583;BME280;46415;47.536;19.066;2023-12-20T00:57:41;-18196.28;;;-1.22;100.00
60583;BME280;46415;47.536;19.066;2023-12-20T01:00:44;-18194.78;;;-1.28;100.00
60583;BME280;46415;47.536;19.066;2023-12-20T01:03:47;-18193.94;;;-1.31;100.00
60583;BME280;46415;47.536;19.066;2023-12-20T01:06:51;-18194.78;;;-1.28;100.00
60583;BME280;46415;47.536;19.066;2023-12-20T01:09:54;-18196.97;;;-1.19;100.00
60583;BME280;46415;47.536;19.066;2023-12-20T01:12:57;-18193.66;;;-1.32;100.00
60583;BME280;46415;47.536;19.066;2023-12-20T01:16:00;-18198.09;;;-1.15;100.00
60583;BME280;46415;47.536;19.066;2023-12-20T01:19:03;-18197.13;;;-1.19;100.00
60583;BME280;46415;47.536;19.066;2023-12-20T01:22:05;-18197.66;;;-1.17;100.00
60583;BME280;46415;47.536;19.066;2023-12-20T01:25:08;-18197.53;;;-1.17;100.00
60583;BME280;46415;47.536;19.066;2023-12-20T01:28:11;-18198.34;;;-1.14;100.00
60583;BME280;46415;47.536;19.066;2023-12-20T01:31:14;-18197.81;;;-1.16;100.00
60583;BME280;46415;47.536;19.066;2023-12-20T01:34:17;-18198.34;;;-1.14;100.00
60583;BME280;46415;47.536;19.066;2023-12-20T01:37:20;-18199.03;;;-1.12;100.00
60583;BME280;46415;47.536;19.066;2023-12-20T01:40:23;-18197.13;;;-1.19;100.00
60583;BME280;46415;47.536;19.066;2023-12-20T01:43:27;-18197.25;;;-1.18;100.00
60583;BME280;46415;47.536;19.066;2023-12-20T01:46:34;-18196.97;;;-1.19;100.00
60583;BME280;46415;47.536;19.066;2023-12-20T01:49:37;-18193.66;;;-1.32;100.00
60583;BME280;46415;47.536;19.066;2023-12-20T01:52:41;-18195.03;;;-1.27;100.00
60583;BME280;46415;47.536;19.066;2023-12-20T01:55:43;-18192.28;;;-1.37;100.00
60583;BME280;46415;47.536;19.066;2023-12-20T01:58:46;-18192.28;;;-1.37;100.00
60583;BME280;46415;47.536;19.066;2023-12-20T02:01:50;-18194.06;;;-1.30;100.00
60583;BME280;46415;47.536;19.066;2023-12-20T02:04:53;-18196.44;;;-1.21;100.00
60583;BME280;46415;47.536;19.066;2023-12-20T02:07:56;-18194.50;;;-1.29;100.00
60583;BME280;46415;47.536;19.066;2023-12-20T02:10:59;-18192.84;;;-1.35;100.00
60583;BME280;46415;47.536;19.066;2023-12-20T02:14:02;-18192.16;;;-1.37;100.00
60583;BME280;46415;47.536;19.066;2023-12-20T02:17:05;-18192.41;;;-1.36;100.00
60583;BME280;46415;47.536;19.066;2023-12-20T02:20:08;-18193.66;;;-1.32;100.00
60583;BME280;46415;47.536;19.066;2023-12-20T02:23:11;-18194.91;;;-1.27;100.00
60583;BME280;46415;47.536;19.066;2023-12-20T02:26:13;-18196.00;;;-1.23;100.00
60583;BME280;46415;47.536;19.066;2023-12-20T02:29:16;-18197.25;;;-1.18;100.00
60583;BME280;46415;47.536;19.066;2023-12-20T02:32:19;-18195.88;;;-1.24;100.00
60583;BME280;46415;47.536;19.066;2023-12-20T02:35:22;-18198.62;;;-1.13;100.00
60583;BME280;46415;47.536;19.066;2023-12-20T02:38:25;-18198.09;;;-1.15;100.00
60583;BME280;46415;47.536;19.066;2023-12-20T02:41:28;-18198.50;;;-1.14;100.00
60583;BME280;46415;47.536;19.066;2023-12-20T02:44:31;-18198.91;;;-1.12;100.00
60583;BME280;46415;47.536;19.066;2023-12-20T02:47:33;-18199.59;;;-1.10;100.00
60583;BME280;46415;47.536;19.066;2023-12-20T02:50:36;-18201.13;;;-1.04;100.00
60583;BME280;46415;47.536;19.066;2023-12-20T02:53:39;-18200.28;;;-1.07;100.00
60583;BME280;46415;47.536;19.066;2023-12-20T02:56:42;-18201.94;;;-1.01;100.00
60583;BME280;46415;47.536;19.066;2023-12-20T02:59:45;-18200.97;;;-1.05;100.00
60583;BME280;46415;47.536;19.066;2023-12-20T03:02:48;-18200.69;;;-1.06;100.00
60583;BME280;46415;47.536;19.066;2023-12-20T03:05:50;-18203.06;;;-0.97;100.00
60583;BME280;46415;47.536;19.066;2023-12-20T03:08:53;-18202.78;;;-0.98;100.00
60583;BME280;46415;47.536;19.066;2023-12-20T03:11:56;-18203.88;;;-0.94;100.00
60583;BME280;46415;47.536;19.066;2023-12-20T03:14:59;-18204.03;;;-0.94;100.00
60583;BME280;46415;47.536;19.066;2023-12-20T03:18:01;-18203.59;;;-0.95;100.00
60583;BME280;46415;47.536;19.066;2023-12-20T03:21:04;-18202.78;;;-0.98;100.00
60583;BME280;46415;47.536;19.066;2023-12-20T03:24:07;-18203.06;;;-0.97;100.00
60583;BME280;46415;47.536;19.066;2023-12-20T03:27:10;-18203.34;;;-0.96;100.00
60583;BME280;46415;47.536;19.066;2023-12-20T03:30:13;-18206.50;;;-0.85;100.00
60583;BME280;46415;47.536;19.066;2023-12-20T03:33:16;-18203.06;;;-0.97;100.00
60583;BME280;46415;47.536;19.066;2023-12-20T03:36:20;-18201.69;;;-1.02;100.00
60583;BME280;46415;47.536;19.066;2023-12-20T03:39:23;-18203.75;;;-0.95;100.00
60583;BME280;46415;47.536;19.066;2023-12-20T03:42:25;-18202.91;;;-0.98;100.00
60583;BME280;46415;47.536;19.066;2023-12-20T03:45:28;-18202.09;;;-1.01;100.00
60583;BME280;46415;47.536;19.066;2023-12-20T03:48:31;-18202.50;;;-0.99;100.00
60583;BME280;46415;47.536;19.066;2023-12-20T03:51:33;-18203.19;;;-0.97;100.00
60583;BME280;46415;47.536;19.066;2023-12-20T03:54:36;-18206.50;;;-0.85;100.00
60583;BME280;46415;47.536;19.066;2023-12-20T03:57:39;-18205.69;;;-0.88;100.00
60583;BME280;46415;47.536;19.066;2023-12-20T04:00:41;-18204.44;;;-0.92;100.00
60583;BME280;46415;47.536;19.066;2023-12-20T04:03:44;-18205.25;;;-0.89;100.00
60583;BME280;46415;47.536;19.066;2023-12-20T04:06:47;-18203.34;;;-0.96;100.00
60583;BME280;46415;47.536;19.066;2023-12-20T04:09:50;-18203.19;;;-0.97;100.00
60583;BME280;46415;47.536;19.066;2023-12-20T04:12:53;-18202.91;;;-0.98;100.00
60583;BME280;46415;47.536;19.066;2023-12-20T04:15:57;-18201.41;;;-1.03;100.00
60583;BME280;46415;47.536;19.066;2023-12-20T04:19:00;-18200.28;;;-1.07;100.00
60583;BME280;46415;47.536;19.066;2023-12-20T04:22:03;-18200.56;;;-1.06;100.00
60583;BME280;46415;47.536;19.066;2023-12-20T04:25:06;-18197.81;;;-1.16;100.00
60583;BME280;46415;47.536;19.066;2023-12-20T04:28:10;-18198.62;;;-1.13;100.00
60583;BME280;46415;47.536;19.066;2023-12-20T04:31:12;-18200.56;;;-1.06;100.00
60583;BME280;46415;47.536;19.066;2023-12-20T04:34:16;-18200.97;;;-1.05;100.00
60583;BME280;46415;47.536;19.066;2023-12-20T04:37:19;-18201.41;;;-1.03;100.00
60583;BME280;46415;47.536;19.066;2023-12-20T04:40:21;-18199.75;;;-1.09;100.00
60583;BME280;46415;47.536;19.066;2023-12-20T04:43:24;-18200.28;;;-1.07;100.00
60583;BME280;46415;47.536;19.066;2023-12-20T04:46:27;-18199.88;;;-1.09;100.00
60583;BME280;46415;47.536;19.066;2023-12-20T04:49:30;-18200.03;;;-1.08;100.00
60583;BME280;46415;47.536;19.066;2023-12-20T04:52:33;-18200.56;;;-1.06;100.00
60583;BME280;46415;47.536;19.066;2023-12-20T04:55:35;-18201.13;;;-1.04;100.00
60583;BME280;46415;47.536;19.066;2023-12-20T04:58:39;-18201.41;;;-1.03;100.00
60583;BME280;46415;47.536;19.066;2023-12-20T05:01:41;-18199.75;;;-1.09;100.00
60583;BME280;46415;47.536;19.066;2023-12-20T05:04:44;-18201.94;;;-1.01;100.00
60583;BME280;46415;47.536;19.066;2023-12-20T05:07:47;-18200.03;;;-1.08;100.00
60583;BME280;46415;47.536;19.066;2023-12-20T05:10:52;-18200.03;;;-1.08;100.00
60583;BME280;46415;47.536;19.066;2023-12-20T05:13:56;-18198.91;;;-1.12;100.00
60583;BME280;46415;47.536;19.066;2023-12-20T05:16:59;-18200.69;;;-1.06;100.00
60583;BME280;46415;47.536;19.066;2023-12-20T05:20:02;-18200.44;;;-1.07;100.00
60583;BME280;46415;47.536;19.066;2023-12-20T05:23:05;-18199.88;;;-1.09;100.00
60583;BME280;46415;47.536;19.066;2023-12-20T05:26:08;-18202.22;;;-1.00;100.00
60583;BME280;46415;47.536;19.066;2023-12-20T05:29:11;-18200.69;;;-1.06;100.00
60583;BME280;46415;47.536;19.066;2023-12-20T05:32:13;-18198.34;;;-1.14;100.00
60583;BME280;46415;47.536;19.066;2023-12-20T05:35:16;-18198.91;;;-1.12;100.00
60583;BME280;46415;47.536;19.066;2023-12-20T05:38:19;-18200.16;;;-1.08;100.00
60583;BME280;46415;47.536;19.066;2023-12-20T05:41:22;-18197.66;;;-1.17;100.00
60583;BME280;46415;47.536;19.066;2023-12-20T05:44:25;-18198.22;;;-1.15;100.00
60583;BME280;46415;47.536;19.066;2023-12-20T05:47:27;-18197.81;;;-1.16;100.00
60583;BME280;46415;47.536;19.066;2023-12-20T05:50:30;-18196.44;;;-1.21;100.00
60583;BME280;46415;47.536;19.066;2023-12-20T05:53:33;-18193.81;;;-1.31;100.00
60583;BME280;46415;47.536;19.066;2023-12-20T05:56:35;-18195.31;;;-1.26;100.00
60583;BME280;46415;47.536;19.066;2023-12-20T05:59:38;-18196.56;;;-1.21;100.00
60583;BME280;46415;47.536;19.066;2023-12-20T06:02:41;-18198.62;;;-1.13;100.00
60583;BME280;46415;47.536;19.066;2023-12-20T06:05:44;-18198.91;;;-1.12;100.00
60583;BME280;46415;47.536;19.066;2023-12-20T06:08:46;-18197.66;;;-1.17;100.00
60583;BME280;46415;47.536;19.066;2023-12-20T06:11:49;-18200.03;;;-1.08;100.00
60583;BME280;46415;47.536;19.066;2023-12-20T06:14:53;-18200.97;;;-1.05;100.00
60583;BME280;46415;47.536;19.066;2023-12-20T06:17:55;-18200.84;;;-1.05;100.00
60583;BME280;46415;47.536;19.066;2023-12-20T06:20:58;-18201.94;;;-1.01;100.00
60583;BME280;46415;47.536;19.066;2023-12-20T06:24:01;-18202.37;;;-1.00;100.00
60583;BME280;46415;47.536;19.066;2023-12-20T06:27:03;-18205.69;;;-0.88;100.00
60583;BME280;46415;47.536;19.066;2023-12-20T06:30:06;-18205.13;;;-0.90;100.00
60583;BME280;46415;47.536;19.066;2023-12-20T06:33:09;-18204.84;;;-0.91;100.00
60583;BME280;46415;47.536;19.066;2023-12-20T06:36:14;-18206.38;;;-0.85;100.00
60583;BME280;46415;47.536;19.066;2023-12-20T06:39:16;-18207.19;;;-0.82;100.00
60583;BME280;46415;47.536;19.066;2023-12-20T06:42:19;-18210.38;;;-0.70;100.00
60583;BME280;46415;47.536;19.066;2023-12-20T06:45:22;-18209.69;;;-0.73;100.00
60583;BME280;46415;47.536;19.066;2023-12-20T06:48:25;-18206.91;;;-0.83;100.00
60583;BME280;46415;47.536;19.066;2023-12-20T06:51:27;-18210.66;;;-0.69;100.00
60583;BME280;46415;47.536;19.066;2023-12-20T06:54:30;-18210.38;;;-0.70;100.00
60583;BME280;46415;47.536;19.066;2023-12-20T06:57:33;-18213.41;;;-0.59;100.00
60583;BME280;46415;47.536;19.066;2023-12-20T07:00:36;-18211.19;;;-0.67;100.00
60583;BME280;46415;47.536;19.066;2023-12-20T07:03:38;-18206.38;;;-0.85;100.00
60583;BME280;46415;47.536;19.066;2023-12-20T07:06:43;-18203.47;;;-0.96;100.00
60583;BME280;46415;47.536;19.066;2023-12-20T07:09:45;-18205.25;;;-0.89;100.00
60583;BME280;46415;47.536;19.066;2023-12-20T07:12:49;-18204.72;;;-0.91;100.00
60583;BME280;46415;47.536;19.066;2023-12-20T07:15:51;-18204.44;;;-0.92;100.00
60583;BME280;46415;47.536;19.066;2023-12-20T07:18:54;-18200.28;;;-1.07;100.00
60583;BME280;46415;47.536;19.066;2023-12-20T07:21:58;-18200.97;;;-1.05;100.00
60583;BME280;46415;47.536;19.066;2023-12-20T07:25:01;-18200.56;;;-1.06;100.00
60583;BME280;46415;47.536;19.066;2023-12-20T07:28:04;-18198.91;;;-1.12;100.00
60583;BME280;46415;47.536;19.066;2023-12-20T07:31:07;-18200.28;;;-1.07;100.00
60583;BME280;46415;47.536;19.066;2023-12-20T07:34:10;-18202.37;;;-1.00;100.00
60583;BME280;46415;47.536;19.066;2023-12-20T07:37:13;-18203.47;;;-0.96;100.00
60583;BME280;46415;47.536;19.066;2023-12-20T07:40:16;-18205.41;;;-0.89;100.00
60583;BME280;46415;47.536;19.066;2023-12-20T07:43:20;-18208.44;;;-0.77;100.00
60583;BME280;46415;47.536;19.066;2023-12-20T07:46:23;-18205.81;;;-0.87;100.00
60583;BME280;46415;47.536;19.066;2023-12-20T07:49:26;-18202.22;;;-1.00;100.00
60583;BME280;46415;47.536;19.066;2023-12-20T07:52:31;-18200.56;;;-1.06;100.00
60583;BME280;46415;47.536;19.066;2023-12-20T07:55:34;-18203.88;;;-0.94;100.00
60583;BME280;46415;47.536;19.066;2023-12-20T07:58:37;-18206.50;;;-0.85;100.00
60583;BME280;46415;47.536;19.066;2023-12-20T08:01:53;-18208.72;;;-0.76;100.00
60583;BME280;46415;47.536;19.066;2023-12-20T08:04:56;-18208.03;;;-0.79;100.00
60583;BME280;46415;47.536;19.066;2023-12-20T08:07:59;-18208.56;;;-0.77;100.00
60583;BME280;46415;47.536;19.066;2023-12-20T08:11:02;-18209.69;;;-0.73;100.00
60583;BME280;46415;47.536;19.066;2023-12-20T08:14:05;-18210.91;;;-0.68;100.00
60583;BME280;46415;47.536;19.066;2023-12-20T08:17:08;-18211.34;;;-0.67;100.00
60583;BME280;46415;47.536;19.066;2023-12-20T08:20:10;-18211.75;;;-0.65;100.00
60583;BME280;46415;47.536;19.066;2023-12-20T08:23:15;-18215.19;;;-0.53;100.00
60583;BME280;46415;47.536;19.066;2023-12-20T08:26:18;-18217.53;;;-0.44;100.00
60583;BME280;46415;47.536;19.066;2023-12-20T08:29:22;-18217.53;;;-0.44;100.00
60583;BME280;46415;47.536;19.066;2023-12-20T08:32:25;-18217.00;;;-0.46;100.00
60583;BME280;46415;47.536;19.066;2023-12-20T08:35:32;-18215.19;;;-0.53;100.00
60583;BME280;46415;47.536;19.066;2023-12-20T08:38:34;-18213.81;;;-0.58;100.00
60583;BME280;46415;47.536;19.066;2023-12-20T08:41:37;-18214.22;;;-0.56;100.00
60583;BME280;46415;47.536;19.066;2023-12-20T08:44:40;-18210.38;;;-0.70;100.00
60583;BME280;46415;47.536;19.066;2023-12-20T08:47:43;-18211.88;;;-0.65;100.00
60583;BME280;46415;47.536;19.066;2023-12-20T08:50:48;-18214.38;;;-0.56;100.00
60583;BME280;46415;47.536;19.066;2023-12-20T08:53:52;-18217.13;;;-0.46;100.00
60583;BME280;46415;47.536;19.066;2023-12-20T08:56:55;-18218.22;;;-0.42;100.00
60583;BME280;46415;47.536;19.066;2023-12-20T08:59:58;-18219.63;;;-0.36;100.00
60583;BME280;46415;47.536;19.066;2023-12-20T09:03:01;-18227.91;;;-0.06;100.00
60583;BME280;46415;47.536;19.066;2023-12-20T09:06:04;-18228.44;;;-0.04;100.00
60583;BME280;46415;47.536;19.066;2023-12-20T09:09:07;-18230.38;;;0.03;100.00
60583;BME280;46415;47.536;19.066;2023-12-20T09:12:12;-18230.94;;;0.05;100.00
60583;BME280;46415;47.536;19.066;2023-12-20T09:15:15;-18235.06;;;0.20;100.00
60583;BME280;46415;47.536;19.066;2023-12-20T09:18:18;-18234.94;;;0.20;100.00
60583;BME280;46415;47.536;19.066;2023-12-20T09:21:21;-18238.09;;;0.31;100.00
60583;BME280;46415;47.536;19.066;2023-12-20T09:24:24;-18235.91;;;0.23;100.00
60583;BME280;46415;47.536;19.066;2023-12-20T09:27:26;-18244.59;;;0.55;100.00
60583;BME280;46415;47.536;19.066;2023-12-20T09:30:29;-18241.69;;;0.45;100.00
60583;BME280;46415;47.536;19.066;2023-12-20T09:33:33;-18244.16;;;0.54;100.00
60583;BME280;46415;47.536;19.066;2023-12-20T09:36:36;-18244.03;;;0.53;100.00
60583;BME280;46415;47.536;19.066;2023-12-20T09:39:39;-18243.63;;;0.52;100.00
60583;BME280;46415;47.536;19.066;2023-12-20T09:42:55;-18248.59;;;0.70;100.00
60583;BME280;46415;47.536;19.066;2023-12-20T09:46:00;-18253.00;;;0.86;100.00
60583;BME280;46415;47.536;19.066;2023-12-20T09:49:05;-18261.13;;;1.16;100.00
60583;BME280;46415;47.536;19.066;2023-12-20T09:52:08;-18263.75;;;1.26;100.00
60583;BME280;46415;47.536;19.066;2023-12-20T09:55:12;-18274.50;;;1.65;100.00
60583;BME280;46415;47.536;19.066;2023-12-20T09:58:15;-18275.06;;;1.67;100.00
60583;BME280;46415;47.536;19.066;2023-12-20T10:01:18;-18262.38;;;1.20;100.00
60583;BME280;46415;47.536;19.066;2023-12-20T10:04:21;-18260.72;;;1.14;100.00
60583;BME280;46415;47.536;19.066;2023-12-20T10:07:31;-18262.22;;;1.20;100.00
60583;BME280;46415;47.536;19.066;2023-12-20T10:10:34;-18264.84;;;1.30;100.00
60583;BME280;46415;47.536;19.066;2023-12-20T10:13:48;-18270.66;;;1.51;100.00
60583;BME280;46415;47.536;19.066;2023-12-20T10:16:51;-18266.09;;;1.34;100.00
60583;BME280;46415;47.536;19.066;2023-12-20T10:19:54;-18268.31;;;1.42;100.00
60583;BME280;46415;47.536;19.066;2023-12-20T10:22:57;-18272.56;;;1.58;100.00
60583;BME280;46415;47.536;19.066;2023-12-20T10:26:00;-18277.25;;;1.75;100.00
60583;BME280;46415;47.536;19.066;2023-12-20T10:29:05;-18275.34;;;1.68;100.00
60583;BME280;46415;47.536;19.066;2023-12-20T10:32:27;-18273.53;;;1.61;100.00
60583;BME280;46415;47.536;19.066;2023-12-20T10:35:30;-18273.69;;;1.62;100.00
60583;BME280;46415;47.536;19.066;2023-12-20T10:38:33;-18271.34;;;1.53;100.00
60583;BME280;46415;47.536;19.066;2023-12-20T10:41:36;-18276.16;;;1.71;100.00
60583;BME280;46415;47.536;19.066;2023-12-20T10:44:43;-18281.13;;;1.89;100.00
60583;BME280;46415;47.536;19.066;2023-12-20T10:47:46;-18279.75;;;1.84;100.00
60583;BME280;46415;47.536;19.066;2023-12-20T10:50:50;-18283.88;;;1.99;100.00
60583;BME280;46415;47.536;19.066;2023-12-20T10:53:53;-18287.72;;;2.14;100.00
60583;BME280;46415;47.536;19.066;2023-12-20T10:56:57;-18288.00;;;2.15;100.00
60583;BME280;46415;47.536;19.066;2023-12-20T11:00:00;-18290.50;;;2.24;100.00
60583;BME280;46415;47.536;19.066;2023-12-20T11:03:08;-18293.38;;;2.34;100.00
60583;BME280;46415;47.536;19.066;2023-12-20T11:06:16;-18297.09;;;2.48;100.00
60583;BME280;46415;47.536;19.066;2023-12-20T11:09:31;-18301.22;;;2.63;100.00
60583;BME280;46415;47.536;19.066;2023-12-20T11:12:42;-18305.78;;;2.80;100.00
60583;BME280;46415;47.536;19.066;2023-12-20T11:15:46;-18308.41;;;2.90;100.00
60583;BME280;46415;47.536;19.066;2023-12-20T11:18:50;-18313.34;;;3.08;100.00
60583;BME280;46415;47.536;19.066;2023-12-20T11:21:53;-18316.53;;;3.19;100.00
60583;BME280;46415;47.536;19.066;2023-12-20T11:25:06;-18320.38;;;3.34;100.00
60583;BME280;46415;47.536;19.066;2023-12-20T11:28:12;-18323.81;;;3.46;100.00
60583;BME280;46415;47.536;19.066;2023-12-20T11:31:15;-18328.78;;;3.64;100.00
60583;BME280;46415;47.536;19.066;2023-12-20T11:34:17;-18334.13;;;3.84;100.00
60583;BME280;46415;47.536;19.066;2023-12-20T11:37:20;-18340.59;;;4.08;100.00
60583;BME280;46415;47.536;19.066;2023-12-20T11:40:23;-18342.41;;;4.15;100.00
60583;BME280;46415;47.536;19.066;2023-12-20T11:43:31;-18348.72;;;4.38;100.00
60583;BME280;46415;47.536;19.066;2023-12-20T11:46:35;-18354.63;;;4.60;100.00
60583;BME280;46415;47.536;19.066;2023-12-20T11:49:38;-18363.84;;;4.93;100.00
60583;BME280;46415;47.536;19.066;2023-12-20T11:52:41;-18372.50;;;5.25;100.00
60583;BME280;46415;47.536;19.066;2023-12-20T11:55:47;-18384.19;;;5.68;100.00
60583;BME280;46415;47.536;19.066;2023-12-20T11:58:49;-18395.06;;;6.08;100.00
60583;BME280;46415;47.536;19.066;2023-12-20T12:01:53;-18410.16;;;6.64;100.00
60583;BME280;46415;47.536;19.066;2023-12-20T12:04:59;-18417.84;;;6.92;100.00
60583;BME280;46415;47.536;19.066;2023-12-20T12:08:02;-18429.38;;;7.35;100.00
60583;BME280;46415;47.536;19.066;2023-12-20T12:11:07;-18437.34;;;7.64;100.00
60583;BME280;46415;47.536;19.066;2023-12-20T12:14:09;-18441.75;;;7.80;100.00
60583;BME280;46415;47.536;19.066;2023-12-20T12:17:14;-18443.13;;;7.86;100.00
60583;BME280;46415;47.536;19.066;2023-12-20T12:20:17;-18443.13;;;7.86;100.00
60583;BME280;46415;47.536;19.066;2023-12-20T12:23:22;-18431.59;;;7.43;100.00
60583;BME280;46415;47.536;19.066;2023-12-20T12:26:26;-18430.75;;;7.40;100.00
60583;BME280;46415;47.536;19.066;2023-12-20T12:29:33;-18426.91;;;7.26;100.00
60583;BME280;46415;47.536;19.066;2023-12-20T12:32:36;-18422.53;;;7.10;100.00
60583;BME280;46415;47.536;19.066;2023-12-20T12:35:40;-18421.28;;;7.05;100.00
60583;BME280;46415;47.536;19.066;2023-12-20T12:38:43;-18421.28;;;7.05;100.00
60583;BME280;46415;47.536;19.066;2023-12-20T12:41:45;-18412.91;;;6.74;100.00
60583;BME280;46415;47.536;19.066;2023-12-20T12:44:48;-18409.06;;;6.60;100.00
60583;BME280;46415;47.536;19.066;2023-12-20T12:47:51;-18406.59;;;6.51;100.00
60583;BME280;46415;47.536;19.066;2023-12-20T12:50:54;-18404.13;;;6.42;100.00
60583;BME280;46415;47.536;19.066;2023-12-20T12:53:57;-18406.03;;;6.49;100.00
60583;BME280;46415;47.536;19.066;2023-12-20T12:56:59;-18400.00;;;6.27;100.00
60583;BME280;46415;47.536;19.066;2023-12-20T13:00:02;-18397.13;;;6.16;100.00
60583;BME280;46415;47.536;19.066;2023-12-20T13:03:06;-18397.94;;;6.19;100.00
60583;BME280;46415;47.536;19.066;2023-12-20T13:06:09;-18399.47;;;6.25;100.00
60583;BME280;46415;47.536;19.066;2023-12-20T13:09:11;-18392.31;;;5.98;100.00
60583;BME280;46415;47.536;19.066;2023-12-20T13:12:14;-18389.97;;;5.90;100.00
60583;BME280;46415;47.536;19.066;2023-12-20T13:15:17;-18389.56;;;5.88;100.00
60583;BME280;46415;47.536;19.066;2023-12-20T13:18:20;-18385.03;;;5.71;100.00
60583;BME280;46415;47.536;19.066;2023-12-20T13:21:23;-18383.09;;;5.64;100.00
60583;BME280;46415;47.536;19.066;2023-12-20T13:24:26;-18380.75;;;5.56;100.00
60583;BME280;46415;47.536;19.066;2023-12-20T13:27:28;-18380.47;;;5.55;100.00
60583;BME280;46415;47.536;19.066;2023-12-20T13:30:31;-18379.94;;;5.53;100.00
60583;BME280;46415;47.536;19.066;2023-12-20T13:33:34;-18376.91;;;5.42;100.00
60583;BME280;46415;47.536;19.066;2023-12-20T13:36:37;-18376.63;;;5.41;100.00
60583;BME280;46415;47.536;19.066;2023-12-20T13:39:39;-18375.00;;;5.34;100.00
60583;BME280;46415;47.536;19.066;2023-12-20T13:42:42;-18368.53;;;5.11;100.00
60583;BME280;46415;47.536;19.066;2023-12-20T13:45:44;-18367.84;;;5.08;100.00
60583;BME280;46415;47.536;19.066;2023-12-20T13:48:48;-18367.00;;;5.05;100.00
60583;BME280;46415;47.536;19.066;2023-12-20T13:51:52;-18366.88;;;5.05;100.00
60583;BME280;46415;47.536;19.066;2023-12-20T13:54:57;-18361.78;;;4.86;100.00
60583;BME280;46415;47.536;19.066;2023-12-20T13:58:00;-18360.41;;;4.81;100.00
60583;BME280;46415;47.536;19.066;2023-12-20T14:01:03;-18351.88;;;4.49;100.00
60583;BME280;46415;47.536;19.066;2023-12-20T14:04:06;-18352.31;;;4.51;100.00
60583;BME280;46415;47.536;19.066;2023-12-20T14:07:09;-18354.50;;;4.59;100.00
60583;BME280;46415;47.536;19.066;2023-12-20T14:10:16;-18354.63;;;4.60;100.00
60583;BME280;46415;47.536;19.066;2023-12-20T14:13:18;-18353.53;;;4.56;100.00
60583;BME280;46415;47.536;19.066;2023-12-20T14:16:21;-18350.22;;;4.43;100.00
60583;BME280;46415;47.536;19.066;2023-12-20T14:19:23;-18349.69;;;4.41;100.00
60583;BME280;46415;47.536;19.066;2023-12-20T14:22:26;-18347.75;;;4.34;100.00
60583;BME280;46415;47.536;19.066;2023-12-20T14:25:31;-18346.66;;;4.30;100.00
60583;BME280;46415;47.536;19.066;2023-12-20T14:28:47;-18347.22;;;4.32;100.00
60583;BME280;46415;47.536;19.066;2023-12-20T14:31:50;-18349.53;;;4.41;100.00
60583;BME280;46415;47.536;19.066;2023-12-20T14:34:53;-18352.16;;;4.50;100.00
60583;BME280;46415;47.536;19.066;2023-12-20T14:37:57;-18351.88;;;4.49;100.00
60583;BME280;46415;47.536;19.066;2023-12-20T14:41:00;-18354.91;;;4.61;100.00
60583;BME280;46415;47.536;19.066;2023-12-20T14:44:05;-18354.38;;;4.59;100.00
60583;BME280;46415;47.536;19.066;2023-12-20T14:47:09;-18358.62;;;4.74;100.00
60583;BME280;46415;47.536;19.066;2023-12-20T14:50:12;-18356.56;;;4.67;100.00
60583;BME280;46415;47.536;19.066;2023-12-20T14:53:20;-18359.88;;;4.79;100.00
60583;BME280;46415;47.536;19.066;2023-12-20T14:56:25;-18360.41;;;4.81;100.00
60583;BME280;46415;47.536;19.066;2023-12-20T14:59:28;-18359.59;;;4.78;100.00
60583;BME280;46415;47.536;19.066;2023-12-20T15:02:31;-18358.22;;;4.73;100.00
60583;BME280;46415;47.536;19.066;2023-12-20T15:05:34;-18356.56;;;4.67;100.00
60583;BME280;46415;47.536;19.066;2023-12-20T15:08:38;-18354.91;;;4.61;100.00
60583;BME280;46415;47.536;19.066;2023-12-20T15:11:40;-18351.34;;;4.47;100.00
60583;BME280;46415;47.536;19.066;2023-12-20T15:14:43;-18349.41;;;4.40;100.00
60583;BME280;46415;47.536;19.066;2023-12-20T15:17:47;-18346.09;;;4.28;100.00
60583;BME280;46415;47.536;19.066;2023-12-20T15:20:50;-18342.94;;;4.17;100.00
60583;BME280;46415;47.536;19.066;2023-12-20T15:23:53;-18341.56;;;4.11;100.00
60583;BME280;46415;47.536;19.066;2023-12-20T15:26:55;-18342.53;;;4.15;100.00
60583;BME280;46415;47.536;19.066;2023-12-20T15:29:59;-18342.13;;;4.14;100.00
60583;BME280;46415;47.536;19.066;2023-12-20T15:33:01;-18340.75;;;4.08;100.00
60583;BME280;46415;47.536;19.066;2023-12-20T15:36:09;-18339.50;;;4.04;100.00
60583;BME280;46415;47.536;19.066;2023-12-20T15:39:11;-18338.81;;;4.01;100.00